Time;durP1;ratioP1;P1;durP2;ratioP2;P2;SDS_P1;SDS_P2;PMS_P1;PMS_P2;Temp;Humidity;BMP_temperature;BMP_pressure;BME280_temperature;BME280_humidity;BME280_pressure;Samples;Min_cycle;Max_cycle;Signal;HPM_P1;HPM_P2
2023/02/04 06:53:58;;;;;;;;;;;;;;;6.65;67.42;101484.25;1085759;46;20191;-79
2023/02/04 06:55:01;;;;;;;;;;;;;;;6.62;67.65;101479.94;1084961;54;19939;-79
2023/02/04 06:56:05;;;;;;;;;;;;;;;6.58;68.13;101488.16;1084625;54;19954;-79
2023/02/04 06:57:06;;;;;;;;;;;;;;;6.59;68.09;101495.19;1085133;46;20468;-78
2023/02/04 06:58:11;;;;;;;;;;;;;;;6.62;68.12;101490.56;1084534;54;20434;-78
2023/02/04 06:59:12;;;;;;;;;;;;;;;6.54;68.32;101498.97;1084688;54;19954;-79
2023/02/04 07:00:16;;;;;;;;;;;;;;;6.49;69.15;101510.78;1085100;54;19947;-78
2023/02/04 07:01:18;;;;;;;;;;;;;;;6.45;69.13;101496.81;1084934;54;19946;-79
2023/02/04 07:02:22;;;;;;;;;;;;;;;6.45;69.56;101506.56;1085140;54;20262;-78
2023/02/04 07:03:23;;;;;;;;;;;;;;;6.58;69.32;101499.66;1084785;54;19947;-79
2023/02/04 07:04:27;;;;;;;;;;;;;;;6.66;69.47;101509.88;1084809;54;19946;-80
2023/02/04 07:05:28;;;;;;;;;;;;;;;6.73;69.21;101508.59;1084699;54;19973;-79
2023/02/04 07:06:32;;;;;;;;;;;;;;;6.78;68.90;101511.00;1084870;54;19950;-79
2023/02/04 07:07:33;;;;;;;;;;;;;;;6.80;68.96;101520.59;1084888;54;19947;-79
2023/02/04 07:08:38;;;;;;;;;;;;;;;6.82;69.47;101524.03;1084904;54;19994;-79
2023/02/04 07:09:39;;;;;;;;;;;;;;;6.84;69.42;101527.47;1084749;54;19958;-79
2023/02/04 07:10:45;;;;;;;;;;;;;;;6.76;70.53;101531.47;1084697;54;20053;-79
2023/02/04 07:11:47;;;;;;;;;;;;;;;6.66;71.58;101534.63;1085465;54;19943;-79
2023/02/04 07:12:51;;;;;;;;;;;;;;;6.69;71.61;101534.47;1084704;54;19993;-79
2023/02/04 07:13:52;;;;;;;;;;;;;;;6.72;71.94;101542.28;1085067;46;19974;-79
2023/02/04 07:14:56;;;;;;;;;;;;;;;6.80;71.23;101530.38;1084840;54;19946;-79
2023/02/04 07:15:57;;;;;;;;;;;;;;;6.82;71.84;101541.75;1084608;54;19946;-79
2023/02/04 07:17:01;;;;;;;;;;;;;;;6.80;72.63;101538.34;1084694;54;19969;-78
2023/02/04 07:18:02;;;;;;;;;;;;;;;6.83;72.35;101533.72;1084700;54;19962;-78
2023/02/04 07:19:06;;;;;;;;;;;;;;;6.82;72.88;101539.09;1084535;54;19957;-78
2023/02/04 07:20:08;;;;;;;;;;;;;;;6.82;73.17;101536.44;1084500;54;19947;-78
2023/02/04 07:21:12;;;;;;;;;;;;;;;6.81;73.44;101540.03;1084639;54;20062;-80
2023/02/04 07:22:14;;;;;;;;;;;;;;;6.82;73.73;101545.31;1084446;54;19968;-78
2023/02/04 07:23:17;;;;;;;;;;;;;;;6.85;73.33;101533.63;1084492;54;19958;-79
2023/02/04 07:24:18;;;;;;;;;;;;;;;6.89;73.09;101537.84;1084397;54;19947;-78
2023/02/04 07:25:22;;;;;;;;;;;;;;;6.88;73.66;101536.13;1084574;54;19954;-79
2023/02/04 07:26:26;;;;;;;;;;;;;;;6.90;73.57;101542.19;1084710;54;19947;-78
2023/02/04 07:27:30;;;;;;;;;;;;;;;6.93;73.50;101544.69;1084993;39;20321;-78
2023/02/04 07:28:31;;;;;;;;;;;;;;;6.95;73.23;101548.13;1084391;54;19946;-79
2023/02/04 07:29:36;;;;;;;;;;;;;;;6.98;73.12;101549.75;1084591;54;19950;-78
2023/02/04 07:30:37;;;;;;;;;;;;;;;6.99;73.06;101552.31;1084403;54;19969;-80
2023/02/04 07:31:41;;;;;;;;;;;;;;;6.96;73.53;101555.19;1084513;54;19953;-79
2023/02/04 07:32:42;;;;;;;;;;;;;;;7.00;72.96;101551.38;1084631;54;20315;-79
2023/02/04 07:33:47;;;;;;;;;;;;;;;7.03;73.12;101558.38;1084365;54;19946;-78
2023/02/04 07:34:48;;;;;;;;;;;;;;;6.99;73.01;101552.31;1084179;54;20301;-78
2023/02/04 07:35:52;;;;;;;;;;;;;;;7.02;73.13;101554.81;1084523;54;19980;-79
2023/02/04 07:36:53;;;;;;;;;;;;;;;7.03;72.72;101547.72;1084279;54;19946;-79
2023/02/04 07:37:57;;;;;;;;;;;;;;;7.03;73.09;101558.38;1084400;54;19976;-81
2023/02/04 07:38:58;;;;;;;;;;;;;;;7.03;72.69;101550.38;1084108;54;19946;-79
2023/02/04 07:40:03;;;;;;;;;;;;;;;7.05;72.89;101544.97;1083996;54;19981;-78
2023/02/04 07:41:04;;;;;;;;;;;;;;;7.06;72.89;101546.69;1084598;54;19970;-79
2023/02/04 07:42:10;;;;;;;;;;;;;;;7.05;72.91;101556.44;1085149;54;19946;-78
2023/02/04 07:43:11;;;;;;;;;;;;;;;7.06;72.87;101557.31;1085009;54;19947;-78
2023/02/04 07:44:15;;;;;;;;;;;;;;;7.10;72.82;101561.50;1084840;54;19947;-79
2023/02/04 07:45:18;;;;;;;;;;;;;;;7.10;72.92;101569.50;1084933;54;19947;-78
2023/02/04 07:46:22;;;;;;;;;;;;;;;7.00;73.86;101567.34;1084879;54;19946;-78
2023/02/04 07:47:23;;;;;;;;;;;;;;;6.88;74.57;101568.03;1084871;54;19970;-79
2023/02/04 07:48:27;;;;;;;;;;;;;;;6.83;74.98;101578.03;1084817;54;19951;-80
2023/02/04 07:49:28;;;;;;;;;;;;;;;6.77;75.28;101573.91;1085702;54;19957;-78
2023/02/04 07:50:33;;;;;;;;;;;;;;;6.82;74.86;101579.84;1084884;54;19947;-78
2023/02/04 07:51:34;;;;;;;;;;;;;;;6.83;74.28;101576.25;1084269;54;19946;-79
2023/02/04 07:52:38;;;;;;;;;;;;;;;6.89;73.92;101583.06;1084283;39;20041;-78
2023/02/04 07:53:39;;;;;;;;;;;;;;;6.98;74.10;101595.84;1084263;54;19947;-79
2023/02/04 07:54:43;;;;;;;;;;;;;;;6.99;73.82;101586.06;1083929;54;20089;-78
2023/02/04 07:55:44;;;;;;;;;;;;;;;6.92;72.34;101593.50;1084190;54;20555;-78
2023/02/04 07:56:48;;;;;;;;;;;;;;;6.90;72.16;101590.06;1084776;47;20022;-80
2023/02/04 07:57:52;;;;;;;;;;;;;;;6.89;72.25;101596.34;1084675;47;19958;-79
2023/02/04 07:58:55;;;;;;;;;;;;;;;6.82;71.75;101587.84;1084423;47;20070;-80
2023/02/04 07:59:56;;;;;;;;;;;;;;;6.77;71.60;101592.53;1084292;54;19950;-78
2023/02/04 08:01:00;;;;;;;;;;;;;;;6.81;71.74;101594.09;1084486;54;19951;-80
2023/02/04 08:02:01;;;;;;;;;;;;;;;6.84;71.83;101601.91;1084642;54;19946;-80
2023/02/04 08:03:05;;;;;;;;;;;;;;;6.80;71.36;101595.03;1085025;54;19958;-78
2023/02/04 08:04:06;;;;;;;;;;;;;;;6.71;72.03;101596.38;1084753;54;19970;-80
2023/02/04 08:05:10;;;;;;;;;;;;;;;6.70;71.74;101600.00;1084267;54;19950;-79
2023/02/04 08:06:11;;;;;;;;;;;;;;;6.78;72.16;101594.25;1084649;39;20360;-78
2023/02/04 08:07:15;;;;;;;;;;;;;;;6.87;72.07;101603.53;1084182;54;19984;-79
2023/02/04 08:08:16;;;;;;;;;;;;;;;6.95;72.10;101603.97;1084343;54;19969;-79
2023/02/04 08:09:19;;;;;;;;;;;;;;;6.96;71.19;101600.38;1084467;54;19947;-79
2023/02/04 08:10:20;;;;;;;;;;;;;;;6.99;70.92;101605.50;1084233;46;19981;-79
2023/02/04 08:11:25;;;;;;;;;;;;;;;7.03;70.76;101611.53;1084230;54;20086;-80
2023/02/04 08:12:26;;;;;;;;;;;;;;;7.08;70.83;101605.97;1084033;47;19945;-78
2023/02/04 08:13:33;;;;;;;;;;;;;;;7.08;70.60;101613.94;1084109;54;20053;-79
2023/02/04 08:14:35;;;;;;;;;;;;;;;7.13;70.52;101603.91;1084081;54;19951;-79
2023/02/04 08:15:39;;;;;;;;;;;;;;;7.00;69.99;101609.88;1084660;39;20352;-78
2023/02/04 08:16:40;;;;;;;;;;;;;;;6.86;70.90;101615.94;1085931;39;20341;-79
2023/02/04 08:17:43;;;;;;;;;;;;;;;6.81;71.18;101622.44;1085686;54;19947;-78
2023/02/04 08:18:45;;;;;;;;;;;;;;;6.84;70.95;101616.97;1087441;54;19946;-81
2023/02/04 08:19:48;;;;;;;;;;;;;;;6.88;71.03;101621.22;1088020;47;19986;-80
2023/02/04 08:20:49;;;;;;;;;;;;;;;6.93;71.21;101626.28;1087628;54;19945;-81
2023/02/04 08:21:53;;;;;;;;;;;;;;;6.99;71.09;101628.59;1087556;54;19945;-82
2023/02/04 08:22:54;;;;;;;;;;;;;;;7.01;71.33;101630.22;1087732;47;20387;-82
2023/02/04 08:23:58;;;;;;;;;;;;;;;7.07;71.14;101633.50;1087599;54;19927;-81
2023/02/04 08:24:59;;;;;;;;;;;;;;;7.11;71.29;101625.28;1084257;54;19950;-79
2023/02/04 08:26:03;;;;;;;;;;;;;;;7.14;70.98;101624.25;1084208;54;19946;-79
2023/02/04 08:27:04;;;;;;;;;;;;;;;7.16;70.75;101633.00;1083974;54;20728;-78
2023/02/04 08:28:07;;;;;;;;;;;;;;;7.18;70.70;101631.09;1084271;54;19987;-78
2023/02/04 08:29:14;;;;;;;;;;;;;;;7.20;70.86;101629.22;1084164;54;19946;-78
2023/02/04 08:30:15;;;;;;;;;;;;;;;7.20;71.25;101636.34;1084090;54;19970;-78
2023/02/04 08:31:19;;;;;;;;;;;;;;;7.17;70.86;101626.75;1084191;54;19947;-78
2023/02/04 08:32:20;;;;;;;;;;;;;;;7.18;71.31;101631.97;1084217;54;20503;-78
2023/02/04 08:33:24;;;;;;;;;;;;;;;7.20;71.41;101641.66;1085134;39;20468;-79
2023/02/04 08:34:25;;;;;;;;;;;;;;;7.22;71.07;101639.78;1083951;46;19966;-79
2023/02/04 08:35:29;;;;;;;;;;;;;;;7.20;71.11;101637.19;1084353;54;19998;-79
2023/02/04 08:36:30;;;;;;;;;;;;;;;7.22;70.88;101637.13;1084345;54;19946;-78
2023/02/04 08:37:34;;;;;;;;;;;;;;;7.23;71.11;101638.81;1084274;54;20520;-78
2023/02/04 08:38:35;;;;;;;;;;;;;;;7.20;71.24;101631.88;1084297;54;19954;-79
2023/02/04 08:39:43;;;;;;;;;;;;;;;7.19;71.17;101635.47;1084228;54;20383;-78
2023/02/04 08:40:44;;;;;;;;;;;;;;;7.21;71.14;101630.94;1084673;39;20332;-77
2023/02/04 08:41:48;;;;;;;;;;;;;;;7.23;71.10;101631.72;1084349;54;19947;-79
2023/02/04 08:42:49;;;;;;;;;;;;;;;7.25;71.28;101632.50;1084271;54;19947;-77
2023/02/04 08:43:52;;;;;;;;;;;;;;;7.26;71.27;101639.53;1084208;54;19958;-78
2023/02/04 08:44:58;;;;;;;;;;;;;;;7.29;71.11;101634.03;1084042;54;19954;-76
2023/02/04 08:46:00;;;;;;;;;;;;;;;7.27;70.10;101640.38;1084486;47;19962;-80
2023/02/04 08:47:03;;;;;;;;;;;;;;;7.23;69.94;101645.03;1085086;39;20400;-79
2023/02/04 08:48:05;;;;;;;;;;;;;;;7.25;70.20;101643.16;1084686;54;20014;-78
2023/02/04 08:49:09;;;;;;;;;;;;;;;7.25;70.05;101645.81;1084611;54;19947;-79
2023/02/04 08:50:10;;;;;;;;;;;;;;;7.27;69.92;101646.59;1085589;39;20367;-79
2023/02/04 08:51:14;;;;;;;;;;;;;;;7.25;70.04;101651.13;1085072;54;19953;-78
2023/02/04 08:52:15;;;;;;;;;;;;;;;7.14;71.91;101650.84;1084552;54;19946;-79
2023/02/04 08:53:19;;;;;;;;;;;;;;;7.04;72.48;101650.47;1085496;39;20356;-79
2023/02/04 08:54:22;;;;;;;;;;;;;;;7.02;72.82;101652.38;1084934;54;19947;-79
2023/02/04 08:55:23;;;;;;;;;;;;;;;7.12;72.73;101648.28;1083903;54;21045;-79
2023/02/04 08:56:28;;;;;;;;;;;;;;;7.18;72.44;101657.69;1084465;54;19954;-79
2023/02/04 08:57:29;;;;;;;;;;;;;;;7.13;72.53;101657.94;1084098;54;19954;-78
2023/02/04 08:58:33;;;;;;;;;;;;;;;7.09;72.84;101658.19;1083941;54;19950;-78
2023/02/04 08:59:35;;;;;;;;;;;;;;;7.02;73.17;101658.53;1084303;54;19946;-78
2023/02/04 09:00:41;;;;;;;;;;;;;;;6.96;73.17;101658.00;1084800;39;20346;-79
2023/02/04 09:01:47;;;;;;;;;;;;;;;6.97;73.23;101660.59;1084392;54;19962;-77
2023/02/04 09:02:51;;;;;;;;;;;;;;;6.88;73.79;101666.41;1084290;54;19946;-77
2023/02/04 09:03:52;;;;;;;;;;;;;;;6.76;73.36;101667.03;1085741;39;20409;-78
2023/02/04 09:04:56;;;;;;;;;;;;;;;6.89;73.46;101662.81;1085126;39;20281;-78
2023/02/04 09:05:57;;;;;;;;;;;;;;;6.84;73.09;101663.06;1084307;54;19954;-78
2023/02/04 09:07:01;;;;;;;;;;;;;;;6.83;73.79;101669.31;1084543;54;20050;-78
2023/02/04 09:08:02;;;;;;;;;;;;;;;6.85;74.08;101671.88;1084473;54;19954;-79
2023/02/04 09:09:05;;;;;;;;;;;;;;;6.82;74.47;101667.59;1084804;39;20403;-78
2023/02/04 09:10:07;;;;;;;;;;;;;;;6.80;74.91;101679.25;1084663;54;19970;-79
2023/02/04 09:11:12;;;;;;;;;;;;;;;6.74;75.29;101679.53;1084375;54;19946;-78
2023/02/04 09:12:13;;;;;;;;;;;;;;;6.78;75.47;101679.31;1085443;31;20480;-80
2023/02/04 09:13:17;;;;;;;;;;;;;;;6.73;75.79;101681.34;1085120;54;19950;-78
2023/02/04 09:14:20;;;;;;;;;;;;;;;6.74;75.85;101679.53;1084986;39;20382;-78
2023/02/04 09:15:22;;;;;;;;;;;;;;;6.75;76.20;101684.81;1084987;54;20358;-78
2023/02/04 09:16:28;;;;;;;;;;;;;;;6.69;76.29;101683.31;1084939;54;19953;-79
2023/02/04 09:17:29;;;;;;;;;;;;;;;6.65;76.30;101683.56;1084959;54;19953;-79
2023/02/04 09:18:33;;;;;;;;;;;;;;;6.65;76.24;101687.06;1084665;54;19951;-77
2023/02/04 09:19:34;;;;;;;;;;;;;;;6.67;75.96;101685.19;1084789;54;20772;-78
2023/02/04 09:20:38;;;;;;;;;;;;;;;6.65;75.85;101687.06;1085384;31;20450;-77
2023/02/04 09:21:39;;;;;;;;;;;;;;;6.63;75.90;101690.75;1085387;54;19947;-79
2023/02/04 09:22:43;;;;;;;;;;;;;;;6.62;76.26;101686.38;1086472;54;20070;-78
2023/02/04 09:23:45;;;;;;;;;;;;;;;6.68;76.73;101691.34;1086808;39;20376;-79
2023/02/04 09:24:49;;;;;;;;;;;;;;;6.75;76.21;101699.88;1086439;54;19947;-78
2023/02/04 09:25:50;;;;;;;;;;;;;;;6.86;75.29;101694.84;1086098;54;19950;-78
2023/02/04 09:26:53;;;;;;;;;;;;;;;6.83;74.76;101689.69;1086520;54;19962;-78
2023/02/04 09:27:55;;;;;;;;;;;;;;;6.82;74.14;101690.63;1086566;54;20036;-78
2023/02/04 09:28:58;;;;;;;;;;;;;;;6.83;74.37;101689.69;1086696;54;19951;-79
2023/02/04 09:29:59;;;;;;;;;;;;;;;6.81;74.35;101700.41;1086322;54;19993;-79
2023/02/04 09:31:05;;;;;;;;;;;;;;;6.95;74.72;101699.69;1086356;54;19947;-78
2023/02/04 09:32:11;;;;;;;;;;;;;;;7.07;74.17;101695.53;1087095;39;20366;-79
2023/02/04 09:33:13;;;;;;;;;;;;;;;7.14;74.01;101693.41;1086872;39;20377;-78
2023/02/04 09:34:17;;;;;;;;;;;;;;;7.20;73.58;101697.53;1087275;39;20187;-78
2023/02/04 09:35:18;;;;;;;;;;;;;;;7.23;73.38;101702.66;1086477;54;19947;-79
2023/02/04 09:36:22;;;;;;;;;;;;;;;7.23;72.80;101703.53;1087041;54;19950;-78
2023/02/04 09:37:23;;;;;;;;;;;;;;;7.27;72.83;101710.44;1087190;54;20625;-78
2023/02/04 09:38:27;;;;;;;;;;;;;;;7.31;72.47;101708.47;1087065;54;20090;-81
2023/02/04 09:39:28;;;;;;;;;;;;;;;7.38;72.29;101706.31;1087275;54;20532;-78
2023/02/04 09:40:33;;;;;;;;;;;;;;;7.42;72.46;101708.72;1087303;54;19958;-78
2023/02/04 09:41:35;;;;;;;;;;;;;;;7.48;72.70;101707.53;1087156;54;19957;-78
2023/02/04 09:42:38;;;;;;;;;;;;;;;7.52;72.40;101698.44;1086235;54;19943;-78
2023/02/04 09:43:42;;;;;;;;;;;;;;;7.51;71.90;101706.53;1086463;54;19950;-77
2023/02/04 09:44:46;;;;;;;;;;;;;;;7.53;71.99;101701.94;1087175;54;19950;-77
2023/02/04 09:45:47;;;;;;;;;;;;;;;7.59;71.74;101706.94;1087531;54;19954;-77
2023/02/04 09:46:52;;;;;;;;;;;;;;;7.63;71.66;101712.03;1087668;54;19955;-79
2023/02/04 09:47:59;;;;;;;;;;;;;;;7.57;70.45;101716.81;1087556;54;19943;-77
2023/02/04 09:49:03;;;;;;;;;;;;;;;7.60;71.15;101706.84;1087639;54;19950;-76
2023/02/04 09:50:05;;;;;;;;;;;;;;;7.60;71.07;101712.19;1087735;54;19943;-76
2023/02/04 09:51:09;;;;;;;;;;;;;;;7.64;71.27;101713.75;1087762;54;19942;-77
2023/02/04 09:52:14;;;;;;;;;;;;;;;7.65;70.85;101712.78;1087674;54;20008;-77
2023/02/04 09:53:18;;;;;;;;;;;;;;;7.65;70.77;101714.59;1087659;54;19943;-78
2023/02/04 09:54:22;;;;;;;;;;;;;;;7.68;70.52;101713.56;1089288;39;20155;-77
2023/02/04 09:55:26;;;;;;;;;;;;;;;7.68;70.33;101716.22;1087686;54;19946;-77
2023/02/04 09:56:29;;;;;;;;;;;;;;;7.71;70.77;101716.06;1087647;54;19981;-77
2023/02/04 09:57:30;;;;;;;;;;;;;;;7.72;70.65;101712.44;1087666;54;19931;-76
2023/02/04 09:58:35;;;;;;;;;;;;;;;7.77;70.77;101719.25;1087721;54;19942;-76
2023/02/04 09:59:42;;;;;;;;;;;;;;;7.81;70.90;101719.91;1087741;54;19954;-76
2023/02/04 10:00:46;;;;;;;;;;;;;;;7.80;70.00;101708.41;1087600;54;19965;-76
2023/02/04 10:01:50;;;;;;;;;;;;;;;7.82;69.58;101716.31;1087448;54;19950;-76
2023/02/04 10:02:54;;;;;;;;;;;;;;;7.73;68.26;101708.84;1087234;54;19982;-77
2023/02/04 10:03:59;;;;;;;;;;;;;;;7.73;68.54;101720.34;1087363;54;19942;-77
2023/02/04 10:05:03;;;;;;;;;;;;;;;7.77;69.03;101718.34;1086339;54;20547;-79
2023/02/04 10:06:04;;;;;;;;;;;;;;;7.82;69.29;101716.31;1086187;54;19957;-78
2023/02/04 10:07:11;;;;;;;;;;;;;;;7.86;69.33;101715.19;1086311;54;19947;-79
2023/02/04 10:08:13;;;;;;;;;;;;;;;7.84;68.32;101722.38;1086993;54;19951;-78
2023/02/04 10:09:17;;;;;;;;;;;;;;;7.88;68.70;101713.28;1086710;54;19962;-80
2023/02/04 10:10:24;;;;;;;;;;;;;;;7.99;69.05;101715.34;1086763;54;19945;-81
2023/02/04 10:11:28;;;;;;;;;;;;;;;8.06;68.33;101713.19;1085912;54;19957;-79
2023/02/04 10:12:30;;;;;;;;;;;;;;;8.06;67.72;101716.72;1086553;54;20026;-78
2023/02/04 10:13:35;;;;;;;;;;;;;;;8.15;68.11;101711.81;1086379;54;19998;-77
2023/02/04 10:14:36;;;;;;;;;;;;;;;8.15;67.80;101706.50;1086150;54;19977;-78
2023/02/04 10:15:40;;;;;;;;;;;;;;;8.21;67.49;101712.34;1086450;54;19953;-78
2023/02/04 10:16:42;;;;;;;;;;;;;;;8.27;67.17;101717.28;1086568;54;20514;-79
2023/02/04 10:17:46;;;;;;;;;;;;;;;8.30;66.40;101718.06;1086676;54;20003;-78
2023/02/04 10:18:49;;;;;;;;;;;;;;;8.37;67.21;101711.44;1086558;54;20015;-79
2023/02/04 10:19:55;;;;;;;;;;;;;;;8.38;66.80;101719.31;1086388;54;19954;-78
2023/02/04 10:20:59;;;;;;;;;;;;;;;8.34;65.83;101716.94;1086868;46;19943;-79
2023/02/04 10:22:04;;;;;;;;;;;;;;;8.42;66.85;101720.88;1086528;54;19958;-78
2023/02/04 10:23:09;;;;;;;;;;;;;;;8.41;63.90;101718.28;1086761;54;19951;-77
2023/02/04 10:24:15;;;;;;;;;;;;;;;8.47;64.39;101715.31;1086410;54;19946;-78
2023/02/04 10:25:16;;;;;;;;;;;;;;;8.42;64.18;101712.88;1086305;54;19947;-78
2023/02/04 10:26:20;;;;;;;;;;;;;;;8.46;64.83;101710.88;1086414;54;20020;-78
2023/02/04 10:27:22;;;;;;;;;;;;;;;8.35;62.04;101714.19;1086994;54;19958;-77
2023/02/04 10:28:34;;;;;;;;;;;;;;;8.31;61.99;101725.13;1087003;54;19999;-79
2023/02/04 10:29:39;;;;;;;;;;;;;;;8.22;61.64;101707.84;1086614;54;19946;-78
2023/02/04 10:30:41;;;;;;;;;;;;;;;8.33;62.70;101717.88;1086514;54;19969;-78
2023/02/04 10:31:45;;;;;;;;;;;;;;;8.42;62.20;101720.00;1086206;54;19958;-78
2023/02/04 10:32:47;;;;;;;;;;;;;;;8.46;60.51;101718.88;1086128;54;19950;-77
2023/02/04 10:33:51;;;;;;;;;;;;;;;8.50;60.72;101717.78;1086371;54;19951;-78
2023/02/04 10:34:58;;;;;;;;;;;;;;;8.53;60.54;101717.59;1086362;54;19981;-78
2023/02/04 10:36:02;;;;;;;;;;;;;;;8.58;61.10;101712.88;1086391;54;20011;-80
2023/02/04 10:37:11;;;;;;;;;;;;;;;8.63;61.37;101707.25;1085701;54;19950;-82
2023/02/04 10:38:15;;;;;;;;;;;;;;;8.64;60.75;101713.44;1086547;54;19957;-78
2023/02/04 10:39:19;;;;;;;;;;;;;;;8.66;60.16;101711.56;1086272;54;19953;-78
2023/02/04 10:40:28;;;;;;;;;;;;;;;8.68;60.23;101712.31;1086511;54;19966;-78
2023/02/04 10:41:32;;;;;;;;;;;;;;;8.63;59.36;101712.59;1086763;54;19962;-78
2023/02/04 10:42:33;;;;;;;;;;;;;;;8.62;59.46;101721.53;1087047;54;19995;-79
2023/02/04 10:43:37;;;;;;;;;;;;;;;8.63;59.58;101714.38;1086949;54;20011;-79
2023/02/04 10:44:45;;;;;;;;;;;;;;;8.45;58.48;101711.00;1086955;54;19947;-79
2023/02/04 10:45:49;;;;;;;;;;;;;;;8.45;59.43;101714.50;1086640;54;19951;-79
2023/02/04 10:46:57;;;;;;;;;;;;;;;8.55;59.88;101715.72;1086594;54;19947;-77
2023/02/04 10:48:00;;;;;;;;;;;;;;;8.61;58.69;101714.50;1086715;46;19947;-78
2023/02/04 10:49:03;;;;;;;;;;;;;;;8.68;59.87;101717.66;1086523;46;19962;-78
2023/02/04 10:50:17;;;;;;;;;;;;;;;8.74;59.67;101718.13;1085979;54;19939;-80
2023/02/04 10:51:23;;;;;;;;;;;;;;;8.61;58.22;101718.94;1086525;54;19973;-79
2023/02/04 10:52:29;;;;;;;;;;;;;;;8.64;58.76;101724.09;1086360;54;19943;-81
2023/02/04 10:54:49;;;;;;;;;;;;;;;8.47;58.11;101720.63;1087480;39;20400;-79
2023/02/04 10:55:51;;;;;;;;;;;;;;;8.28;58.36;101727.00;1086409;54;20740;-80
2023/02/04 10:56:55;;;;;;;;;;;;;;;8.25;58.39;101729.84;1086116;54;19953;-76
2023/02/04 10:58:01;;;;;;;;;;;;;;;8.27;58.99;101722.63;1087159;54;19947;-79
2023/02/04 10:59:03;;;;;;;;;;;;;;;8.22;58.82;101734.50;1086766;54;19981;-80
2023/02/04 11:00:08;;;;;;;;;;;;;;;8.25;58.88;101726.34;1087476;39;20443;-80
2023/02/04 11:01:10;;;;;;;;;;;;;;;8.22;58.59;101730.00;1086858;54;20297;-80
2023/02/04 11:02:38;;;;;;;;;;;;;;;8.17;58.17;101720.59;1087150;54;19950;-78
2023/02/04 11:03:39;;;;;;;;;;;;;;;8.14;58.99;101728.75;1086087;54;19951;-80
2023/02/04 11:04:43;;;;;;;;;;;;;;;8.19;59.40;101729.34;1086119;54;19997;-80
2023/02/04 11:05:44;;;;;;;;;;;;;;;8.20;59.56;101721.28;1086570;46;20483;-80
2023/02/04 11:06:51;;;;;;;;;;;;;;;8.27;59.56;101721.75;1086252;39;20281;-79
2023/02/04 11:07:52;;;;;;;;;;;;;;;8.23;59.56;101729.06;1086059;54;19954;-79
2023/02/04 11:08:56;;;;;;;;;;;;;;;8.21;60.21;101728.31;1086381;54;19950;-79
2023/02/04 11:09:57;;;;;;;;;;;;;;;8.22;59.98;101721.16;1086590;54;19974;-80
2023/02/04 11:11:02;;;;;;;;;;;;;;;8.16;60.24;101725.03;1086785;54;19942;-79
2023/02/04 11:12:03;;;;;;;;;;;;;;;8.21;60.71;101723.00;1086415;54;19969;-79
2023/02/04 11:13:08;;;;;;;;;;;;;;;8.22;60.49;101727.34;1086695;46;19947;-79
2023/02/04 11:14:17;;;;;;;;;;;;;;;8.25;60.16;101726.34;1086232;54;19946;-79
2023/02/04 11:15:36;;;;;;;;;;;;;;;8.22;59.92;101726.50;1086204;54;19946;-78
2023/02/04 11:16:48;;;;;;;;;;;;;;;8.25;60.11;101718.34;1087578;39;20345;-79
2023/02/04 11:17:58;;;;;;;;;;;;;;;8.27;59.92;101725.28;1086738;54;19962;-80
2023/02/04 11:19:03;;;;;;;;;;;;;;;8.28;59.89;101721.69;1087099;54;19938;-79
2023/02/04 11:20:16;;;;;;;;;;;;;;;8.30;59.86;101726.06;1087385;39;20064;-77
2023/02/04 11:21:22;;;;;;;;;;;;;;;8.30;59.97;101718.06;1086863;54;19957;-80
2023/02/04 11:22:38;;;;;;;;;;;;;;;8.24;59.53;101721.94;1086671;54;19950;-80
2023/02/04 11:23:42;;;;;;;;;;;;;;;8.20;59.78;101715.94;1086643;54;19947;-79
2023/02/04 11:24:43;;;;;;;;;;;;;;;8.22;60.10;101708.69;1086584;54;19943;-79
2023/02/04 11:25:47;;;;;;;;;;;;;;;8.21;60.02;101712.34;1086099;54;19938;-79
2023/02/04 11:26:49;;;;;;;;;;;;;;;8.22;60.07;101710.50;1085938;54;19962;-80
2023/02/04 11:27:53;;;;;;;;;;;;;;;8.22;60.01;101716.69;1085725;54;19958;-77
2023/02/04 11:29:11;;;;;;;;;;;;;;;8.27;60.16;101716.41;1085568;54;20425;-80
2023/02/04 11:30:21;;;;;;;;;;;;;;;8.30;60.00;101726.06;1086005;54;19958;-79
2023/02/04 11:31:27;;;;;;;;;;;;;;;8.30;59.71;101726.06;1086227;54;20468;-79
2023/02/04 11:32:34;;;;;;;;;;;;;;;8.33;59.97;101728.53;1086313;31;20506;-80
2023/02/04 11:33:37;;;;;;;;;;;;;;;8.32;59.54;101721.47;1086425;54;19957;-80
2023/02/04 11:34:48;;;;;;;;;;;;;;;8.31;59.58;101722.47;1086353;54;19946;-80
2023/02/04 11:36:03;;;;;;;;;;;;;;;8.23;59.47;101726.41;1086858;47;19954;-79
2023/02/04 11:37:29;;;;;;;;;;;;;;;8.16;59.63;101714.38;1086548;54;19949;-81
2023/02/04 11:38:33;;;;;;;;;;;;;;;8.20;59.97;101723.94;1086650;54;19969;-79
2023/02/04 11:39:38;;;;;;;;;;;;;;;8.24;59.75;101722.78;1087889;46;19954;-80
2023/02/04 11:40:42;;;;;;;;;;;;;;;8.22;59.60;101718.50;1086669;54;19954;-80
2023/02/04 11:41:44;;;;;;;;;;;;;;;8.21;59.52;101725.66;1086573;54;19950;-79
2023/02/04 11:42:49;;;;;;;;;;;;;;;8.19;59.68;101718.69;1086295;54;19973;-80
2023/02/04 11:43:50;;;;;;;;;;;;;;;8.13;59.99;101725.22;1086875;54;19951;-78
2023/02/04 11:44:55;;;;;;;;;;;;;;;8.17;60.07;101716.09;1087072;54;19950;-78
2023/02/04 11:46:04;;;;;;;;;;;;;;;8.15;60.21;101719.81;1086481;54;19947;-80
2023/02/04 11:47:07;;;;;;;;;;;;;;;8.13;59.77;101727.88;1087979;31;20553;-79
2023/02/04 11:48:14;;;;;;;;;;;;;;;8.06;59.70;101718.53;1086401;54;19946;-78
2023/02/04 11:49:17;;;;;;;;;;;;;;;8.02;59.51;101717.84;1086552;54;19978;-78
2023/02/04 11:50:23;;;;;;;;;;;;;;;8.08;60.07;101722.81;1086211;54;20447;-79
2023/02/04 11:51:27;;;;;;;;;;;;;;;8.15;60.24;101727.81;1086438;47;19947;-79
2023/02/04 11:52:31;;;;;;;;;;;;;;;8.17;59.96;101726.75;1086476;54;19946;-79
2023/02/04 11:53:37;;;;;;;;;;;;;;;8.19;59.50;101727.53;1086364;54;19943;-77
2023/02/04 11:54:39;;;;;;;;;;;;;;;8.17;59.57;101724.09;1086162;54;19947;-79
2023/02/04 11:55:47;;;;;;;;;;;;;;;8.17;59.32;101734.75;1085908;54;19946;-79
2023/02/04 11:56:51;;;;;;;;;;;;;;;8.20;59.43;101739.03;1085385;54;19973;-79
2023/02/04 11:57:56;;;;;;;;;;;;;;;8.23;59.87;101731.72;1085803;54;19946;-79
2023/02/04 11:58:57;;;;;;;;;;;;;;;8.22;59.07;101732.66;1086059;54;19962;-79
2023/02/04 12:00:01;;;;;;;;;;;;;;;8.24;59.46;101728.13;1085679;54;19947;-78
2023/02/04 12:01:07;;;;;;;;;;;;;;;8.18;59.21;101731.16;1086084;54;19953;-79
2023/02/04 12:02:14;;;;;;;;;;;;;;;8.18;59.13;101731.16;1085759;54;19969;-78
2023/02/04 12:03:23;;;;;;;;;;;;;;;8.20;59.03;101728.38;1085843;54;19950;-79
2023/02/04 12:04:24;;;;;;;;;;;;;;;8.23;58.89;101733.56;1085741;54;19974;-81
2023/02/04 12:05:39;;;;;;;;;;;;;;;8.20;58.73;101734.59;1085798;54;19950;-79
2023/02/04 12:06:40;;;;;;;;;;;;;;;8.15;58.48;101744.63;1086259;54;19947;-79
2023/02/04 12:07:45;;;;;;;;;;;;;;;8.14;58.57;101739.41;1085950;54;20050;-79
2023/02/04 12:08:51;;;;;;;;;;;;;;;8.12;58.61;101734.19;1086164;54;19994;-79
2023/02/04 12:09:52;;;;;;;;;;;;;;;8.12;58.47;101734.19;1086529;54;19961;-79
2023/02/04 12:11:07;;;;;;;;;;;;;;;8.15;58.78;101736.66;1086706;54;19953;-79
2023/02/04 12:12:09;;;;;;;;;;;;;;;8.10;58.55;101738.72;1086437;54;19973;-79
2023/02/04 12:13:19;;;;;;;;;;;;;;;8.19;58.82;101740.88;1086713;54;19976;-79
2023/02/04 12:14:20;;;;;;;;;;;;;;;8.20;58.00;101745.25;1088301;39;20455;-78
2023/02/04 12:15:25;;;;;;;;;;;;;;;8.22;58.09;101751.31;1086921;54;19950;-80
2023/02/04 12:16:26;;;;;;;;;;;;;;;8.18;58.20;101746.25;1086805;54;19942;-79
2023/02/04 12:17:30;;;;;;;;;;;;;;;8.16;58.14;101742.84;1086576;54;19946;-79
2023/02/04 12:18:32;;;;;;;;;;;;;;;8.21;58.76;101743.44;1087518;39;20381;-79
2023/02/04 12:19:36;;;;;;;;;;;;;;;8.17;58.64;101747.22;1086483;54;19950;-79
2023/02/04 12:20:37;;;;;;;;;;;;;;;8.16;59.16;101753.50;1086733;54;20527;-80
2023/02/04 12:21:41;;;;;;;;;;;;;;;8.13;59.26;101751.84;1086700;54;19947;-78
2023/02/04 12:22:42;;;;;;;;;;;;;;;8.08;59.19;101748.59;1086564;54;19950;-80
2023/02/04 12:23:46;;;;;;;;;;;;;;;8.04;59.74;101747.03;1086439;54;19962;-78
2023/02/04 12:24:51;;;;;;;;;;;;;;;8.00;59.52;101754.34;1086343;54;20464;-79
2023/02/04 12:25:55;;;;;;;;;;;;;;;7.94;59.16;101752.88;1086722;47;19969;-79
2023/02/04 12:26:56;;;;;;;;;;;;;;;7.95;59.48;101743.13;1084661;54;19950;-79
2023/02/04 12:27:59;;;;;;;;;;;;;;;7.94;59.46;101746.72;1084119;54;20003;-79